createdAt,value
2019-04-27T00:02:03.690Z,77.32
2019-04-27T00:04:52.844Z,77.31
2019-04-27T00:07:59.341Z,77.39
2019-04-27T00:10:30.845Z,78.15
2019-04-27T00:13:02.197Z,77.96
2019-04-27T00:15:47.298Z,77.54
2019-04-27T00:18:56.446Z,77.42
2019-04-27T00:21:35.014Z,76.93
2019-04-27T00:24:04.023Z,76.48
2019-04-27T00:26:33.503Z,77.34
2019-04-27T00:29:03.739Z,78.85
2019-04-27T00:31:33.734Z,79.27
2019-04-27T00:34:03.661Z,79.60
2019-04-27T00:36:43.513Z,80.13
2019-04-27T00:39:25.180Z,80.65
2019-04-27T00:41:53.860Z,81.16
2019-04-27T00:44:23.701Z,81.50
2019-04-27T00:46:53.392Z,81.75
2019-04-27T00:49:23.874Z,82.05
2019-04-27T00:51:53.613Z,82.65
2019-04-27T00:54:23.783Z,83.32
2019-04-27T00:57:03.211Z,83.26
2019-04-27T00:59:51.056Z,83.34
2019-04-27T01:02:37.143Z,83.21
2019-04-27T01:05:10.742Z,82.85
2019-04-27T01:07:39.379Z,83.00
2019-04-27T01:10:08.117Z,82.72
2019-04-27T01:12:36.762Z,83.17
2019-04-27T01:15:06.495Z,83.30
2019-04-27T01:17:35.490Z,83.62
2019-04-27T01:20:04.995Z,84.93
2019-04-27T01:22:33.987Z,85.44
2019-04-27T01:25:02.898Z,85.61
2019-04-27T01:27:44.469Z,86.03
2019-04-27T01:30:28.846Z,86.45
2019-04-27T01:32:57.927Z,86.80
2019-04-27T01:35:28.850Z,86.95
2019-04-27T01:37:58.949Z,86.80
2019-04-27T01:40:29.497Z,87.30
2019-04-27T01:42:58.880Z,87.74
2019-04-27T01:45:28.973Z,87.20
2019-04-27T01:47:59.568Z,87.33
2019-04-27T01:50:29.024Z,86.83
2019-04-27T01:52:58.713Z,87.16
2019-04-27T01:55:29.734Z,86.84
2019-04-27T01:57:58.711Z,86.76
2019-04-27T02:00:50.492Z,87.12
2019-04-27T02:03:22.898Z,88.42
2019-04-27T02:05:56.059Z,87.25
2019-04-27T02:08:24.786Z,87.09
2019-04-27T02:10:53.787Z,87.44
2019-04-27T02:13:22.417Z,87.48
2019-04-27T02:15:51.068Z,87.36
2019-04-27T02:18:20.054Z,86.73
2019-04-27T02:20:49.232Z,86.23
2019-04-27T02:23:19.240Z,86.26
2019-04-27T02:25:49.669Z,87.47
2019-04-27T02:28:29.580Z,86.84
2019-04-27T02:31:19.379Z,87.82
2019-04-27T02:33:55.700Z,88.68
2019-04-27T02:36:24.704Z,89.08
2019-04-27T02:38:53.684Z,89.59
2019-04-27T02:41:22.671Z,89.75
2019-04-27T02:44:01.772Z,90.58
2019-04-27T02:46:31.480Z,91.07
2019-04-27T02:49:06.483Z,91.25
2019-04-27T02:51:53.776Z,91.05
2019-04-27T02:54:22.666Z,91.25
2019-04-27T02:56:52.825Z,90.79
2019-04-27T02:59:21.708Z,90.75
2019-04-27T03:02:05.822Z,91.72
2019-04-27T03:04:35.026Z,91.70
2019-04-27T03:07:03.655Z,91.30
2019-04-27T03:09:32.601Z,90.50
2019-04-27T03:12:03.128Z,90.32
2019-04-27T03:14:54.457Z,90.64
2019-04-27T03:17:31.326Z,90.08
2019-04-27T03:20:19.952Z,89.44
2019-04-27T03:22:52.660Z,89.34
2019-04-27T03:25:32.496Z,89.36
2019-04-27T03:28:10.911Z,90.48
2019-04-27T03:30:42.639Z,90.51
2019-04-27T03:33:12.244Z,89.90
2019-04-27T03:35:43.345Z,89.69
2019-04-27T03:38:12.519Z,89.83
2019-04-27T03:40:42.139Z,89.31
2019-04-27T03:43:19.955Z,89.59
2019-04-27T03:45:49.709Z,88.67
2019-04-27T03:48:20.380Z,88.66
2019-04-27T03:50:56.588Z,88.86
2019-04-27T03:53:34.045Z,88.73
2019-04-27T03:56:15.061Z,88.81
2019-04-27T03:58:49.497Z,88.97
2019-04-27T04:01:20.295Z,88.72
2019-04-27T04:03:50.098Z,87.71
2019-04-27T04:06:19.800Z,87.97
2019-04-27T04:08:50.566Z,88.96
2019-04-27T04:11:25.160Z,88.68
2019-04-27T04:14:00.116Z,88.23
2019-04-27T04:16:39.464Z,88.89
2019-04-27T04:19:09.782Z,88.51
2019-04-27T04:21:40.083Z,88.21
2019-04-27T04:24:11.944Z,88.74
2019-04-27T04:26:40.392Z,87.93
2019-04-27T04:29:10.529Z,87.06
2019-04-27T04:31:40.403Z,86.67
2019-04-27T04:34:12.142Z,86.40
2019-04-27T04:36:42.698Z,85.60
2019-04-27T04:39:12.550Z,85.69
2019-04-27T04:42:00.894Z,85.65
2019-04-27T04:44:50.294Z,85.14
2019-04-27T04:47:36.335Z,84.61
2019-04-27T04:50:10.810Z,85.49
2019-04-27T04:52:36.606Z,86.42
2019-04-27T04:55:05.907Z,86.43
2019-04-27T04:57:34.520Z,85.50
2019-04-27T05:00:03.153Z,85.81
2019-04-27T05:02:32.069Z,85.65
2019-04-27T05:05:01.375Z,85.70
2019-04-27T05:07:30.266Z,85.93
2019-04-27T05:09:58.883Z,86.15
2019-04-27T05:12:28.788Z,85.15
2019-04-27T05:14:59.079Z,84.84
2019-04-27T05:17:29.628Z,84.57
2019-04-27T05:19:59.059Z,84.46
2019-04-27T05:22:29.616Z,84.11
2019-04-27T05:25:01.204Z,84.13
2019-04-27T05:27:31.201Z,84.24
2019-04-27T05:30:00.622Z,83.74
2019-04-27T05:32:29.662Z,83.33
2019-04-27T05:34:59.602Z,83.26
2019-04-27T05:37:31.580Z,83.12
2019-04-27T05:39:59.695Z,82.81
2019-04-27T05:42:28.974Z,83.16
2019-04-27T05:45:06.940Z,82.81
2019-04-27T05:48:00.785Z,83.10
2019-04-27T05:50:36.442Z,82.97
2019-04-27T05:53:00.291Z,83.34
2019-04-27T05:55:29.218Z,82.71
2019-04-27T05:57:59.167Z,83.12
2019-04-27T06:00:29.331Z,83.13
2019-04-27T06:02:59.124Z,83.55
2019-04-27T06:05:29.243Z,83.75
2019-04-27T06:07:58.923Z,84.07
2019-04-27T06:10:29.551Z,84.23
2019-04-27T06:12:59.813Z,84.60
2019-04-27T06:15:30.177Z,84.54
2019-04-27T06:17:59.630Z,85.03
2019-04-27T06:20:28.690Z,85.25
2019-04-27T06:22:58.859Z,86.12
2019-04-27T06:25:30.533Z,86.21
2019-04-27T06:27:59.338Z,85.88
2019-04-27T06:30:29.266Z,85.27
2019-04-27T06:32:59.435Z,85.83
2019-04-27T06:35:28.876Z,85.80
2019-04-27T06:37:58.569Z,85.41
2019-04-27T06:40:28.969Z,85.27
2019-04-27T06:42:59.477Z,85.12
2019-04-27T06:45:28.904Z,84.96
2019-04-27T06:47:59.582Z,84.60
2019-04-27T06:50:29.587Z,84.93
2019-04-27T06:52:59.126Z,84.05
2019-04-27T06:55:29.128Z,83.10
2019-04-27T06:57:58.961Z,84.33
2019-04-27T07:00:28.920Z,83.29
2019-04-27T07:02:59.549Z,83.06
2019-04-27T07:05:28.906Z,83.26
2019-04-27T07:07:59.095Z,82.19
2019-04-27T07:10:28.623Z,82.24
2019-04-27T07:12:59.715Z,82.40
2019-04-27T07:15:28.771Z,81.48
2019-04-27T07:17:58.603Z,80.47
2019-04-27T07:20:28.730Z,79.85
2019-04-27T07:22:59.491Z,79.98
2019-04-27T07:25:28.935Z,80.23
2019-04-27T07:27:59.195Z,79.96
2019-04-27T07:30:28.815Z,78.90
2019-04-27T07:32:58.866Z,78.77
2019-04-27T07:35:29.612Z,77.78
2019-04-27T07:37:59.020Z,77.65
2019-04-27T07:40:30.264Z,78.09
2019-04-27T07:43:06.079Z,76.87
2019-04-27T07:45:37.080Z,77.94
2019-04-27T07:48:06.004Z,75.28
2019-04-27T07:50:34.999Z,75.68
2019-04-27T07:53:04.204Z,74.58
2019-04-27T07:55:33.625Z,73.99
2019-04-27T07:58:04.958Z,73.79
2019-04-27T08:00:33.845Z,74.30
2019-04-27T08:03:02.842Z,74.00
2019-04-27T08:05:31.563Z,73.30
2019-04-27T08:08:00.518Z,72.71
2019-04-27T08:10:29.343Z,73.18
2019-04-27T08:12:59.689Z,71.46
2019-04-27T08:15:29.098Z,71.69
2019-04-27T08:17:59.200Z,69.43
2019-04-27T08:20:29.384Z,69.96
2019-04-27T08:22:59.794Z,67.26
2019-04-27T08:25:32.138Z,66.53
2019-04-27T08:28:18.867Z,66.07
2019-04-27T08:30:56.686Z,65.84
2019-04-27T08:33:25.328Z,64.56
2019-04-27T08:35:54.265Z,62.05
2019-04-27T08:38:23.567Z,60.26
2019-04-27T08:40:52.865Z,60.15
2019-04-27T08:43:21.754Z,59.13
2019-04-27T08:45:50.971Z,59.96
2019-04-27T08:48:33.436Z,57.83
2019-04-27T08:50:50.884Z,56.92
2019-04-27T08:53:19.511Z,57.18
2019-04-27T08:55:49.612Z,58.04
2019-04-27T08:58:21.243Z,57.98
2019-04-27T09:00:50.039Z,56.82
2019-04-27T09:03:19.415Z,56.78
2019-04-27T09:05:49.020Z,55.50
2019-04-27T09:08:36.768Z,56.52
2019-04-27T09:11:16.198Z,56.51
2019-04-27T09:14:22.575Z,56.99
2019-04-27T09:16:59.999Z,57.66
2019-04-27T09:19:39.347Z,58.25
2019-04-27T09:22:15.967Z,57.40
2019-04-27T09:24:39.792Z,57.33
2019-04-27T09:27:09.606Z,56.84
2019-04-27T09:29:39.455Z,56.09
2019-04-27T09:32:08.882Z,54.76
2019-04-27T09:34:38.007Z,53.63
2019-04-27T09:37:07.746Z,55.44
2019-04-27T09:39:36.697Z,52.73
2019-04-27T09:42:06.505Z,52.20
2019-04-27T09:44:37.144Z,51.63
2019-04-27T09:47:06.171Z,50.77
2019-04-27T09:49:36.668Z,51.19
2019-04-27T09:52:06.353Z,50.70
2019-04-27T09:54:36.583Z,48.99
2019-04-27T09:57:06.948Z,49.63
2019-04-27T09:59:37.787Z,47.84
2019-04-27T10:02:08.600Z,49.53
2019-04-27T10:04:37.892Z,48.16
2019-04-27T10:07:06.706Z,47.86
2019-04-27T10:09:36.868Z,48.29
2019-04-27T10:12:07.499Z,48.32
2019-04-27T10:14:36.665Z,49.00
2019-04-27T10:17:05.695Z,47.14
2019-04-27T10:19:36.385Z,46.09
2019-04-27T10:22:05.787Z,44.57
2019-04-27T10:24:35.803Z,44.75
2019-04-27T10:27:07.952Z,43.57
2019-04-27T10:29:36.945Z,43.31
2019-04-27T10:32:06.223Z,42.83
2019-04-27T10:34:35.749Z,44.89
2019-04-27T10:37:06.074Z,45.71
2019-04-27T10:39:36.080Z,44.87
2019-04-27T10:42:06.767Z,46.56
2019-04-27T10:44:35.960Z,46.82
2019-04-27T10:47:05.905Z,48.16
2019-04-27T10:49:34.938Z,48.24
2019-04-27T10:52:05.748Z,47.96
2019-04-27T10:54:34.413Z,49.19
2019-04-27T10:57:03.452Z,48.59
2019-04-27T10:59:32.346Z,48.11
2019-04-27T11:02:01.053Z,48.29
2019-04-27T11:05:00.900Z,48.45
2019-04-27T11:07:33.583Z,47.94
2019-04-27T11:10:02.200Z,48.77
2019-04-27T11:12:31.205Z,47.66
2019-04-27T11:15:00.194Z,46.35
2019-04-27T11:17:28.899Z,46.80
2019-04-27T11:19:57.786Z,44.65
2019-04-27T11:22:26.771Z,47.51
2019-04-27T11:24:56.378Z,45.27
2019-04-27T11:27:25.433Z,46.34
2019-04-27T11:29:54.142Z,46.86
2019-04-27T11:32:22.864Z,46.12
2019-04-27T11:35:16.459Z,47.27
2019-04-27T11:37:45.748Z,44.70
2019-04-27T11:40:14.609Z,44.83
2019-04-27T11:42:43.512Z,43.93
2019-04-27T11:45:12.603Z,43.76
2019-04-27T11:47:41.799Z,41.33
2019-04-27T11:50:11.312Z,41.58
2019-04-27T11:52:40.609Z,39.32
2019-04-27T11:55:09.687Z,39.01
2019-04-27T11:57:39.119Z,41.71
2019-04-27T12:00:09.327Z,43.41
2019-04-27T12:02:37.933Z,45.34
2019-04-27T12:05:07.996Z,46.28
2019-04-27T12:07:36.961Z,44.74
2019-04-27T12:10:06.662Z,46.33
2019-04-27T12:12:36.380Z,46.73
2019-04-27T12:15:05.888Z,46.91
2019-04-27T12:17:35.886Z,47.43
2019-04-27T12:20:05.788Z,47.17
2019-04-27T12:22:34.436Z,45.73
2019-04-27T12:25:03.579Z,46.98
2019-04-27T12:28:03.692Z,48.29
2019-04-27T12:30:43.492Z,48.72
2019-04-27T12:33:12.319Z,47.58
2019-04-27T12:35:41.646Z,47.95
2019-04-27T12:38:10.620Z,49.16
2019-04-27T12:40:39.530Z,48.40
2019-04-27T12:43:08.518Z,48.60
2019-04-27T12:45:40.297Z,48.50
2019-04-27T12:48:08.135Z,48.22
2019-04-27T12:50:37.105Z,48.44
2019-04-27T12:53:08.120Z,48.69
2019-04-27T12:56:11.271Z,47.86
2019-04-27T12:58:47.625Z,46.13
2019-04-27T13:01:17.856Z,45.66
2019-04-27T13:03:46.593Z,45.39
2019-04-27T13:06:15.311Z,45.45
2019-04-27T13:08:45.758Z,43.74
2019-04-27T13:11:16.162Z,44.54
2019-04-27T13:13:45.279Z,44.79
2019-04-27T13:16:14.273Z,42.87
2019-04-27T13:18:42.923Z,43.26
2019-04-27T13:21:11.546Z,43.36
2019-04-27T13:23:40.181Z,43.04
2019-04-27T13:26:09.226Z,43.87
2019-04-27T13:28:38.212Z,43.83
2019-04-27T13:31:07.532Z,41.41
2019-04-27T13:33:36.537Z,43.16
2019-04-27T13:36:07.481Z,42.72
2019-04-27T13:38:36.578Z,44.02
2019-04-27T13:41:09.548Z,42.78
2019-04-27T13:43:38.750Z,44.50
2019-04-27T13:46:18.989Z,43.77
2019-04-27T13:49:05.409Z,43.86
2019-04-27T13:51:57.496Z,42.41
2019-04-27T13:54:29.086Z,43.45
2019-04-27T13:56:56.998Z,41.35
2019-04-27T13:59:25.940Z,42.08
2019-04-27T14:01:54.569Z,41.48
2019-04-27T14:04:24.154Z,41.63
2019-04-27T14:06:53.213Z,43.12
2019-04-27T14:09:22.120Z,43.60
2019-04-27T14:11:54.808Z,44.20
2019-04-27T14:14:23.693Z,43.79
2019-04-27T14:16:52.332Z,45.17
2019-04-27T14:19:20.968Z,45.01
2019-04-27T14:21:49.620Z,43.51
2019-04-27T14:24:27.717Z,43.59
2019-04-27T14:26:48.686Z,43.91
2019-04-27T14:29:18.944Z,43.21
2019-04-27T14:31:49.724Z,42.89
2019-04-27T14:34:19.043Z,44.17
2019-04-27T14:36:48.862Z,44.93
2019-04-27T14:39:18.496Z,44.66
2019-04-27T14:41:49.077Z,43.89
2019-04-27T14:44:18.807Z,44.16
2019-04-27T14:46:48.531Z,45.95
2019-04-27T14:49:18.254Z,45.32
2019-04-27T14:51:48.602Z,44.57
2019-04-27T14:54:17.765Z,44.66
2019-04-27T14:56:48.775Z,44.59
2019-04-27T14:59:18.787Z,41.83
2019-04-27T15:01:48.769Z,40.78
2019-04-27T15:04:22.824Z,41.72
2019-04-27T15:06:51.810Z,42.28
2019-04-27T15:09:21.111Z,42.45
2019-04-27T15:11:53.611Z,43.65
2019-04-27T15:14:23.704Z,43.13
2019-04-27T15:16:52.668Z,41.27
2019-04-27T15:19:26.986Z,40.67
2019-04-27T15:21:58.976Z,44.30
2019-04-27T15:24:26.358Z,43.05
2019-04-27T15:26:59.018Z,40.53
2019-04-27T15:29:27.071Z,40.98
2019-04-27T15:32:03.157Z,40.69
2019-04-27T15:34:48.129Z,38.13
2019-04-27T15:37:35.428Z,37.91
2019-04-27T15:40:36.004Z,38.02
2019-04-27T15:43:22.945Z,39.67
2019-04-27T15:45:53.390Z,41.66
2019-04-27T15:48:25.071Z,42.89
2019-04-27T15:50:53.786Z,41.49
2019-04-27T15:53:26.011Z,42.13
2019-04-27T15:56:00.091Z,43.33
2019-04-27T15:58:26.178Z,43.54
2019-04-27T16:00:56.629Z,44.34
2019-04-27T16:03:27.311Z,44.67
2019-04-27T16:05:56.239Z,44.93
2019-04-27T16:08:25.221Z,44.99
2019-04-27T16:10:53.930Z,45.62
2019-04-27T16:13:22.572Z,45.27
2019-04-27T16:15:54.018Z,45.76
2019-04-27T16:18:24.490Z,46.11
2019-04-27T16:20:52.851Z,46.02
2019-04-27T16:23:21.849Z,46.30
2019-04-27T16:25:51.545Z,45.90
2019-04-27T16:28:20.564Z,46.43
2019-04-27T16:30:50.629Z,45.91
2019-04-27T16:33:23.382Z,45.90
2019-04-27T16:35:53.150Z,45.44
2019-04-27T16:38:38.784Z,44.90
2019-04-27T16:41:08.160Z,44.47
2019-04-27T16:43:38.521Z,44.21
2019-04-27T16:46:08.909Z,44.43
2019-04-27T16:48:39.006Z,44.63
2019-04-27T16:51:08.736Z,44.97
2019-04-27T16:53:41.154Z,45.01
2019-04-27T16:56:14.707Z,45.25
2019-04-27T16:58:40.166Z,46.04
2019-04-27T17:01:18.247Z,45.61
2019-04-27T17:03:48.461Z,46.05
2019-04-27T17:06:21.058Z,45.66
2019-04-27T17:08:49.674Z,46.02
2019-04-27T17:11:19.626Z,45.81
2019-04-27T17:13:52.940Z,47.47
2019-04-27T17:16:43.409Z,49.06
2019-04-27T17:19:43.745Z,50.38
2019-04-27T17:22:14.717Z,52.26
2019-04-27T17:24:46.413Z,52.02
2019-04-27T17:27:16.562Z,52.62
2019-04-27T17:29:42.535Z,53.07
2019-04-27T17:32:33.724Z,53.39
2019-04-27T17:35:05.016Z,53.77
2019-04-27T17:37:33.868Z,54.35
2019-04-27T17:40:03.002Z,54.40
2019-04-27T17:42:31.631Z,54.89
2019-04-27T17:45:00.608Z,55.05
2019-04-27T17:47:30.131Z,55.03
2019-04-27T17:49:58.973Z,55.05
2019-04-27T17:52:27.658Z,53.01
2019-04-27T17:54:56.554Z,54.48
2019-04-27T17:57:26.553Z,55.45
2019-04-27T18:00:03.156Z,56.21
2019-04-27T18:02:33.800Z,59.94
2019-04-27T18:05:00.373Z,65.42
2019-04-27T18:07:30.139Z,75.23
2019-04-27T18:09:58.983Z,79.99
2019-04-27T18:12:28.494Z,84.84
2019-04-27T18:14:58.173Z,84.88
2019-04-27T18:17:31.959Z,85.10
2019-04-27T18:20:02.976Z,85.45
2019-04-27T18:22:36.496Z,86.51
2019-04-27T18:25:09.685Z,88.36
2019-04-27T18:27:45.095Z,88.46
2019-04-27T18:30:28.089Z,89.47
2019-04-27T18:33:00.617Z,89.42
2019-04-27T18:35:29.678Z,89.69
2019-04-27T18:38:01.626Z,90.05
2019-04-27T18:40:32.052Z,90.20
2019-04-27T18:43:02.013Z,91.66
2019-04-27T18:45:31.728Z,91.85
2019-04-27T18:48:06.562Z,92.43
2019-04-27T18:50:48.403Z,93.04
2019-04-27T18:53:24.558Z,94.31
2019-04-27T18:55:59.355Z,95.00
2019-04-27T18:58:24.601Z,94.47
2019-04-27T19:00:53.630Z,95.00
2019-04-27T19:03:22.304Z,95.67
2019-04-27T19:05:51.345Z,94.82
2019-04-27T19:08:20.207Z,94.23
2019-04-27T19:10:51.117Z,92.87
2019-04-27T19:13:20.028Z,92.55
2019-04-27T19:15:48.943Z,92.03
2019-04-27T19:18:18.867Z,92.70
2019-04-27T19:20:48.244Z,93.36
2019-04-27T19:23:18.593Z,94.58
2019-04-27T19:26:09.369Z,94.59
2019-04-27T19:28:58.258Z,94.96
2019-04-27T19:31:33.143Z,95.24
2019-04-27T19:34:02.126Z,95.23
2019-04-27T19:36:31.072Z,95.44
2019-04-27T19:38:59.990Z,95.89
2019-04-27T19:41:29.610Z,96.32
2019-04-27T19:43:59.867Z,96.38
2019-04-27T19:46:30.498Z,96.37
2019-04-27T19:48:59.555Z,96.54
2019-04-27T19:51:28.356Z,96.44
2019-04-27T19:53:58.196Z,96.43
2019-04-27T19:57:44.947Z,96.40
2019-04-27T20:03:45.916Z,95.82
2019-04-27T20:13:55.362Z,96.11
2019-04-27T20:27:46.821Z,95.79
2019-04-27T20:34:57.993Z,95.41
2019-04-27T20:38:41.921Z,95.94
2019-04-27T20:43:51.751Z,95.67
2019-04-27T20:46:22.672Z,95.71
2019-04-27T20:48:51.472Z,96.33
2019-04-27T20:55:53.162Z,95.97
2019-04-27T20:59:21.945Z,96.09
2019-04-27T21:02:10.494Z,95.74
2019-04-27T21:04:53.242Z,96.00
2019-04-27T21:08:03.028Z,95.99
2019-04-27T21:10:51.408Z,95.76
2019-04-27T21:13:22.575Z,95.17
2019-04-27T21:15:57.778Z,95.29
2019-04-27T21:18:32.916Z,95.13
2019-04-27T21:21:28.377Z,94.68
2019-04-27T21:24:05.242Z,94.28
2019-04-27T21:26:39.543Z,94.15
2019-04-27T21:29:11.728Z,94.00
2019-04-27T21:31:44.475Z,93.61
2019-04-27T21:34:14.530Z,93.51
2019-04-27T21:36:43.739Z,93.60
2019-04-27T21:39:12.715Z,93.29
2019-04-27T21:41:41.737Z,93.78
2019-04-27T21:44:11.559Z,94.00
2019-04-27T21:46:41.813Z,93.36
2019-04-27T21:49:12.453Z,93.40
2019-04-27T21:52:01.396Z,94.17
2019-04-27T21:54:32.729Z,93.53
2019-04-27T21:57:01.800Z,93.55
2019-04-27T21:59:30.857Z,93.46
2019-04-27T22:02:02.301Z,94.11
2019-04-27T22:04:31.621Z,93.90
2019-04-27T22:07:01.429Z,93.84
2019-04-27T22:09:30.716Z,93.09
2019-04-27T22:12:00.656Z,93.45
2019-04-27T22:14:30.064Z,93.40
2019-04-27T22:17:00.738Z,93.12
2019-04-27T22:19:31.091Z,93.38
2019-04-27T22:22:01.880Z,93.92
2019-04-27T22:24:36.861Z,93.77
2019-04-27T22:27:05.931Z,93.64
2019-04-27T22:29:34.578Z,94.03
2019-04-27T22:32:03.642Z,93.48
2019-04-27T22:34:32.836Z,94.01
2019-04-27T22:37:02.745Z,94.34
2019-04-27T22:39:52.476Z,94.79
2019-04-27T22:42:52.216Z,95.47
2019-04-27T22:45:24.679Z,95.39
2019-04-27T22:47:53.567Z,94.90
2019-04-27T22:50:22.783Z,94.81
2019-04-27T22:52:51.429Z,94.33
2019-04-27T22:55:21.998Z,94.19
2019-04-27T22:57:56.238Z,94.10
2019-04-27T23:01:01.231Z,94.37
2019-04-27T23:03:33.975Z,94.19
2019-04-27T23:06:02.764Z,94.03
2019-04-27T23:08:31.377Z,94.54
2019-04-27T23:11:00.588Z,93.76
2019-04-27T23:13:30.946Z,94.18
2019-04-27T23:16:01.569Z,94.18
2019-04-27T23:18:31.175Z,94.38
2019-04-27T23:21:01.557Z,94.33
2019-04-27T23:23:31.242Z,94.34
2019-04-27T23:26:01.795Z,93.83
2019-04-27T23:28:31.317Z,93.59
2019-04-27T23:31:06.216Z,93.12
2019-04-27T23:33:35.966Z,93.05
2019-04-27T23:36:04.598Z,92.90
2019-04-27T23:38:33.257Z,92.99
2019-04-27T23:41:02.147Z,93.02
2019-04-27T23:43:31.726Z,92.96
2019-04-27T23:46:01.635Z,93.06
2019-04-27T23:48:32.124Z,92.92
2019-04-27T23:51:10.381Z,92.89
2019-04-27T23:53:41.635Z,92.57
2019-04-27T23:56:10.299Z,92.50
2019-04-27T23:58:39.510Z,92.64
